sensor_id;sensor_type;location;lat;lon;timestamp;pressure;altitude;pressure_sealevel;temperature;humidity
62926;BME280;55732;52.248;-0.844;2023-08-20T00:01:52;100967.13;;;16.96;79.80
62926;BME280;55732;52.248;-0.844;2023-08-20T00:04:22;100971.23;;;16.95;79.92
62926;BME280;55732;52.248;-0.844;2023-08-20T00:06:51;100973.56;;;16.94;80.06
62926;BME280;55732;52.248;-0.844;2023-08-20T00:09:16;100975.02;;;16.93;80.17
62926;BME280;55732;52.248;-0.844;2023-08-20T00:11:42;100982.34;;;16.92;80.30
62926;BME280;55732;52.248;-0.844;2023-08-20T00:14:07;100977.95;;;16.89;80.25
62926;BME280;55732;52.248;-0.844;2023-08-20T00:16:33;100989.01;;;16.88;80.44
62926;BME280;55732;52.248;-0.844;2023-08-20T00:18:59;100990.30;;;16.86;80.62
62926;BME280;55732;52.248;-0.844;2023-08-20T00:21:25;100992.64;;;16.85;80.70
62926;BME280;55732;52.248;-0.844;2023-08-20T00:23:52;100996.74;;;16.84;80.78
62926;BME280;55732;52.248;-0.844;2023-08-20T00:26:17;100997.14;;;16.81;80.90
62926;BME280;55732;52.248;-0.844;2023-08-20T00:28:43;101000.92;;;16.79;81.07
62926;BME280;55732;52.248;-0.844;2023-08-20T00:31:08;101000.09;;;16.76;80.88
62926;BME280;55732;52.248;-0.844;2023-08-20T00:33:34;101010.63;;;16.74;80.99
62926;BME280;55732;52.248;-0.844;2023-08-20T00:35:59;101008.91;;;16.71;81.17
62926;BME280;55732;52.248;-0.844;2023-08-20T00:38:25;101002.91;;;16.68;81.12
62926;BME280;55732;52.248;-0.844;2023-08-20T00:40:51;101004.36;;;16.67;81.27
62926;BME280;55732;52.248;-0.844;2023-08-20T00:43:16;101004.77;;;16.65;81.54
62926;BME280;55732;52.248;-0.844;2023-08-20T00:45:42;101002.15;;;16.63;81.57
62926;BME280;55732;52.248;-0.844;2023-08-20T00:48:08;101001.61;;;16.62;81.63
62926;BME280;55732;52.248;-0.844;2023-08-20T00:50:34;101001.27;;;16.60;81.63
62926;BME280;55732;52.248;-0.844;2023-08-20T00:53:00;100996.34;;;16.57;81.74
62926;BME280;55732;52.248;-0.844;2023-08-20T00:55:26;101002.08;;;16.55;81.88
62926;BME280;55732;52.248;-0.844;2023-08-20T00:57:52;101002.44;;;16.54;82.00
62926;BME280;55732;52.248;-0.844;2023-08-20T01:00:18;101004.98;;;16.51;81.90
62926;BME280;55732;52.248;-0.844;2023-08-20T01:02:43;101006.98;;;16.50;82.23
62926;BME280;55732;52.248;-0.844;2023-08-20T01:05:11;101010.73;;;16.48;82.24
62926;BME280;55732;52.248;-0.844;2023-08-20T01:13:25;101017.46;;;16.40;82.61
62926;BME280;55732;52.248;-0.844;2023-08-20T01:15:51;101018.22;;;16.38;82.74
62926;BME280;55732;52.248;-0.844;2023-08-20T01:18:16;101026.24;;;16.36;82.75
62926;BME280;55732;52.248;-0.844;2023-08-20T01:20:47;101033.20;;;16.35;82.91
62926;BME280;55732;52.248;-0.844;2023-08-20T01:28:26;101043.59;;;16.29;83.27
62926;BME280;55732;52.248;-0.844;2023-08-20T01:30:56;101045.77;;;16.28;83.40
62926;BME280;55732;52.248;-0.844;2023-08-20T01:33:23;101047.74;;;16.27;83.38
62926;BME280;55732;52.248;-0.844;2023-08-20T01:35:53;101049.89;;;16.25;83.45
62926;BME280;55732;52.248;-0.844;2023-08-20T01:38:19;101049.76;;;16.23;83.58
62926;BME280;55732;52.248;-0.844;2023-08-20T01:40:45;101049.27;;;16.19;83.69
62926;BME280;55732;52.248;-0.844;2023-08-20T01:43:11;101049.98;;;16.19;83.89
62926;BME280;55732;52.248;-0.844;2023-08-20T01:45:36;101049.83;;;16.18;83.88
62926;BME280;55732;52.248;-0.844;2023-08-20T01:48:02;101050.02;;;16.17;83.88
62926;BME280;55732;52.248;-0.844;2023-08-20T01:50:29;101049.52;;;16.16;84.09
62926;BME280;55732;52.248;-0.844;2023-08-20T01:52:55;101052.38;;;16.16;84.22
62926;BME280;55732;52.248;-0.844;2023-08-20T01:55:20;101053.11;;;16.14;84.24
62926;BME280;55732;52.248;-0.844;2023-08-20T01:57:46;101049.03;;;16.13;84.27
62926;BME280;55732;52.248;-0.844;2023-08-20T02:00:12;101046.22;;;16.11;84.21
62926;BME280;55732;52.248;-0.844;2023-08-20T02:02:38;101054.21;;;16.11;84.32
62926;BME280;55732;52.248;-0.844;2023-08-20T02:05:03;101057.95;;;16.10;84.38
62926;BME280;55732;52.248;-0.844;2023-08-20T02:07:29;101059.54;;;16.11;84.51
62926;BME280;55732;52.248;-0.844;2023-08-20T02:09:54;101063.09;;;16.11;84.71
62926;BME280;55732;52.248;-0.844;2023-08-20T02:12:20;101059.16;;;16.14;84.90
62926;BME280;55732;52.248;-0.844;2023-08-20T02:14:45;101054.70;;;16.15;85.05
62926;BME280;55732;52.248;-0.844;2023-08-20T02:17:11;101056.23;;;16.17;85.15
62926;BME280;55732;52.248;-0.844;2023-08-20T02:19:38;101049.73;;;16.14;85.29
62926;BME280;55732;52.248;-0.844;2023-08-20T02:22:03;101062.95;;;16.19;85.37
62926;BME280;55732;52.248;-0.844;2023-08-20T02:24:29;101061.17;;;16.20;85.51
62926;BME280;55732;52.248;-0.844;2023-08-20T02:26:55;101059.36;;;16.22;85.57
62926;BME280;55732;52.248;-0.844;2023-08-20T02:29:20;101062.55;;;16.22;85.60
62926;BME280;55732;52.248;-0.844;2023-08-20T02:31:46;101059.35;;;16.23;85.71
62926;BME280;55732;52.248;-0.844;2023-08-20T02:34:11;101057.20;;;16.23;85.69
62926;BME280;55732;52.248;-0.844;2023-08-20T02:36:37;101059.00;;;16.22;85.68
62926;BME280;55732;52.248;-0.844;2023-08-20T02:39:03;101057.94;;;16.22;85.68
62926;BME280;55732;52.248;-0.844;2023-08-20T02:41:30;101054.57;;;16.21;85.67
62926;BME280;55732;52.248;-0.844;2023-08-20T02:43:56;101052.81;;;16.20;85.69
62926;BME280;55732;52.248;-0.844;2023-08-20T02:46:21;101052.30;;;16.19;85.64
62926;BME280;55732;52.248;-0.844;2023-08-20T02:48:47;101058.55;;;16.17;85.58
62926;BME280;55732;52.248;-0.844;2023-08-20T02:51:12;101055.59;;;16.14;85.65
62926;BME280;55732;52.248;-0.844;2023-08-20T02:53:38;101057.05;;;16.11;85.74
62926;BME280;55732;52.248;-0.844;2023-08-20T02:56:03;101052.55;;;16.04;85.89
62926;BME280;55732;52.248;-0.844;2023-08-20T02:58:29;101060.12;;;16.08;85.92
62926;BME280;55732;52.248;-0.844;2023-08-20T03:00:54;101058.21;;;16.06;85.83
62926;BME280;55732;52.248;-0.844;2023-08-20T03:03:20;101059.11;;;16.05;85.84
62926;BME280;55732;52.248;-0.844;2023-08-20T03:05:45;101061.98;;;16.04;86.00
62926;BME280;55732;52.248;-0.844;2023-08-20T03:08:11;101060.77;;;16.02;85.73
62926;BME280;55732;52.248;-0.844;2023-08-20T03:10:36;101061.70;;;15.99;85.86
62926;BME280;55732;52.248;-0.844;2023-08-20T03:13:02;101066.52;;;15.96;85.86
62926;BME280;55732;52.248;-0.844;2023-08-20T03:15:28;101063.35;;;15.94;86.02
62926;BME280;55732;52.248;-0.844;2023-08-20T03:17:54;101068.19;;;15.93;86.09
62926;BME280;55732;52.248;-0.844;2023-08-20T03:20:20;101070.36;;;15.90;85.95
62926;BME280;55732;52.248;-0.844;2023-08-20T03:22:45;101072.52;;;15.87;85.96
62926;BME280;55732;52.248;-0.844;2023-08-20T03:25:11;101072.56;;;15.84;85.94
62926;BME280;55732;52.248;-0.844;2023-08-20T03:27:36;101079.54;;;15.81;85.94
62926;BME280;55732;52.248;-0.844;2023-08-20T03:30:03;101078.55;;;15.77;86.02
62926;BME280;55732;52.248;-0.844;2023-08-20T03:32:29;101079.29;;;15.75;86.13
62926;BME280;55732;52.248;-0.844;2023-08-20T03:34:54;101083.05;;;15.72;86.06
62926;BME280;55732;52.248;-0.844;2023-08-20T03:37:22;101092.85;;;15.70;86.26
62926;BME280;55732;52.248;-0.844;2023-08-20T03:39:48;101099.98;;;15.68;86.31
62926;BME280;55732;52.248;-0.844;2023-08-20T03:42:13;101103.56;;;15.67;86.35
62926;BME280;55732;52.248;-0.844;2023-08-20T03:44:39;101102.14;;;15.66;86.44
62926;BME280;55732;52.248;-0.844;2023-08-20T03:47:04;101095.05;;;15.66;86.43
62926;BME280;55732;52.248;-0.844;2023-08-20T03:49:30;101092.57;;;15.65;86.52
62926;BME280;55732;52.248;-0.844;2023-08-20T03:51:55;101090.98;;;15.64;86.61
62926;BME280;55732;52.248;-0.844;2023-08-20T03:54:21;101093.13;;;15.63;86.74
62926;BME280;55732;52.248;-0.844;2023-08-20T03:56:46;101095.63;;;15.61;86.81
62926;BME280;55732;52.248;-0.844;2023-08-20T03:59:12;101091.39;;;15.60;86.81
62926;BME280;55732;52.248;-0.844;2023-08-20T04:01:37;101094.61;;;15.58;86.96
62926;BME280;55732;52.248;-0.844;2023-08-20T04:04:03;101100.15;;;15.57;86.85
62926;BME280;55732;52.248;-0.844;2023-08-20T04:06:29;101100.52;;;15.55;86.78
62926;BME280;55732;52.248;-0.844;2023-08-20T04:08:55;101105.30;;;15.53;86.78
62926;BME280;55732;52.248;-0.844;2023-08-20T04:11:20;101108.52;;;15.51;86.82
62926;BME280;55732;52.248;-0.844;2023-08-20T04:13:46;101110.13;;;15.49;86.88
62926;BME280;55732;52.248;-0.844;2023-08-20T04:16:12;101116.70;;;15.48;86.86
62926;BME280;55732;52.248;-0.844;2023-08-20T04:18:37;101121.69;;;15.47;86.87
62926;BME280;55732;52.248;-0.844;2023-08-20T04:21:03;101121.02;;;15.45;87.02
62926;BME280;55732;52.248;-0.844;2023-08-20T04:23:28;101125.85;;;15.43;86.92
62926;BME280;55732;52.248;-0.844;2023-08-20T04:25:54;101127.45;;;15.42;86.99
62926;BME280;55732;52.248;-0.844;2023-08-20T04:28:19;101129.05;;;15.42;86.97
62926;BME280;55732;52.248;-0.844;2023-08-20T04:30:45;101128.70;;;15.42;87.03
62926;BME280;55732;52.248;-0.844;2023-08-20T04:33:10;101125.86;;;15.42;87.11
62926;BME280;55732;52.248;-0.844;2023-08-20T04:35:35;101129.06;;;15.42;87.06
62926;BME280;55732;52.248;-0.844;2023-08-20T04:38:02;101130.30;;;15.41;87.14
62926;BME280;55732;52.248;-0.844;2023-08-20T04:40:28;101134.02;;;15.41;87.12
62926;BME280;55732;52.248;-0.844;2023-08-20T04:42:53;101130.48;;;15.40;87.21
62926;BME280;55732;52.248;-0.844;2023-08-20T04:45:20;101129.77;;;15.41;87.35
62926;BME280;55732;52.248;-0.844;2023-08-20T04:47:46;101132.23;;;15.44;87.47
62926;BME280;55732;52.248;-0.844;2023-08-20T04:50:12;101128.61;;;15.47;87.57
62926;BME280;55732;52.248;-0.844;2023-08-20T04:52:39;101127.68;;;15.51;87.67
62926;BME280;55732;52.248;-0.844;2023-08-20T04:55:05;101122.34;;;15.56;87.79
62926;BME280;55732;52.248;-0.844;2023-08-20T04:57:34;101131.49;;;15.61;87.83
62926;BME280;55732;52.248;-0.844;2023-08-20T05:00:00;101132.50;;;15.66;87.89
62926;BME280;55732;52.248;-0.844;2023-08-20T05:02:26;101136.15;;;15.71;87.88
62926;BME280;55732;52.248;-0.844;2023-08-20T05:04:51;101135.55;;;15.77;87.72
62926;BME280;55732;52.248;-0.844;2023-08-20T05:07:17;101139.22;;;15.80;87.79
62926;BME280;55732;52.248;-0.844;2023-08-20T05:09:42;101144.48;;;15.84;87.89
62926;BME280;55732;52.248;-0.844;2023-08-20T05:12:08;101151.19;;;15.89;87.92
62926;BME280;55732;52.248;-0.844;2023-08-20T05:14:33;101157.50;;;15.94;87.87
62926;BME280;55732;52.248;-0.844;2023-08-20T05:16:59;101156.74;;;15.97;87.75
62926;BME280;55732;52.248;-0.844;2023-08-20T05:19:25;101162.92;;;16.00;87.53
62926;BME280;55732;52.248;-0.844;2023-08-20T05:21:50;101159.17;;;16.02;87.53
62926;BME280;55732;52.248;-0.844;2023-08-20T05:24:17;101158.73;;;16.07;87.64
62926;BME280;55732;52.248;-0.844;2023-08-20T05:26:42;101163.65;;;16.11;87.71
62926;BME280;55732;52.248;-0.844;2023-08-20T05:29:07;101164.67;;;16.15;87.40
62926;BME280;55732;52.248;-0.844;2023-08-20T05:31:33;101169.94;;;16.18;87.37
62926;BME280;55732;52.248;-0.844;2023-08-20T05:33:59;101170.08;;;16.21;87.36
62926;BME280;55732;52.248;-0.844;2023-08-20T05:36:24;101166.88;;;16.21;86.82
62926;BME280;55732;52.248;-0.844;2023-08-20T05:38:50;101175.19;;;16.23;86.71
62926;BME280;55732;52.248;-0.844;2023-08-20T05:41:15;101179.27;;;16.25;86.76
62926;BME280;55732;52.248;-0.844;2023-08-20T05:43:41;101177.23;;;16.29;86.61
62926;BME280;55732;52.248;-0.844;2023-08-20T05:46:06;101180.04;;;16.32;86.42
62926;BME280;55732;52.248;-0.844;2023-08-20T05:48:32;101183.38;;;16.35;86.43
62926;BME280;55732;52.248;-0.844;2023-08-20T05:50:57;101181.56;;;16.37;86.25
62926;BME280;55732;52.248;-0.844;2023-08-20T05:53:23;101187.36;;;16.41;86.25
62926;BME280;55732;52.248;-0.844;2023-08-20T05:55:48;101192.46;;;16.44;86.19
62926;BME280;55732;52.248;-0.844;2023-08-20T05:58:14;101191.06;;;16.44;86.06
62926;BME280;55732;52.248;-0.844;2023-08-20T06:00:40;101194.55;;;16.47;85.86
62926;BME280;55732;52.248;-0.844;2023-08-20T06:03:05;101199.51;;;16.49;85.92
62926;BME280;55732;52.248;-0.844;2023-08-20T06:05:36;101201.75;;;16.52;85.89
62926;BME280;55732;52.248;-0.844;2023-08-20T06:08:01;101194.49;;;16.50;85.70
62926;BME280;55732;52.248;-0.844;2023-08-20T06:10:27;101201.15;;;16.56;85.67
62926;BME280;55732;52.248;-0.844;2023-08-20T06:12:53;101198.65;;;16.58;85.47
62926;BME280;55732;52.248;-0.844;2023-08-20T06:15:18;101200.05;;;16.59;85.40
62926;BME280;55732;52.248;-0.844;2023-08-20T06:17:44;101205.55;;;16.61;85.34
62926;BME280;55732;52.248;-0.844;2023-08-20T06:20:10;101209.65;;;16.62;85.05
62926;BME280;55732;52.248;-0.844;2023-08-20T06:22:37;101214.09;;;16.62;84.94
62926;BME280;55732;52.248;-0.844;2023-08-20T06:25:03;101217.26;;;16.64;85.05
62926;BME280;55732;52.248;-0.844;2023-08-20T06:27:28;101217.90;;;16.68;84.89
62926;BME280;55732;52.248;-0.844;2023-08-20T06:29:54;101209.31;;;16.71;84.82
62926;BME280;55732;52.248;-0.844;2023-08-20T06:32:19;101204.08;;;16.76;84.70
62926;BME280;55732;52.248;-0.844;2023-08-20T06:34:44;101211.60;;;16.84;84.49
62926;BME280;55732;52.248;-0.844;2023-08-20T06:37:10;101211.83;;;16.91;84.41
62926;BME280;55732;52.248;-0.844;2023-08-20T06:39:35;101214.73;;;16.97;84.22
62926;BME280;55732;52.248;-0.844;2023-08-20T06:42:00;101217.33;;;17.01;83.98
62926;BME280;55732;52.248;-0.844;2023-08-20T06:44:26;101217.98;;;17.06;83.87
62926;BME280;55732;52.248;-0.844;2023-08-20T06:46:51;101223.55;;;17.12;83.87
62926;BME280;55732;52.248;-0.844;2023-08-20T06:49:17;101228.41;;;17.19;83.69
62926;BME280;55732;52.248;-0.844;2023-08-20T06:51:42;101230.08;;;17.24;83.33
62926;BME280;55732;52.248;-0.844;2023-08-20T06:54:07;101233.39;;;17.29;83.49
62926;BME280;55732;52.248;-0.844;2023-08-20T06:56:33;101231.08;;;17.38;83.32
62926;BME280;55732;52.248;-0.844;2023-08-20T06:59:00;101228.98;;;17.45;83.08
62926;BME280;55732;52.248;-0.844;2023-08-20T07:01:26;101231.48;;;17.54;82.83
62926;BME280;55732;52.248;-0.844;2023-08-20T07:03:51;101230.45;;;17.61;82.59
62926;BME280;55732;52.248;-0.844;2023-08-20T07:06:16;101227.54;;;17.66;82.34
62926;BME280;55732;52.248;-0.844;2023-08-20T07:08:43;101229.86;;;17.75;82.29
62926;BME280;55732;52.248;-0.844;2023-08-20T07:11:09;101233.16;;;17.87;82.09
62926;BME280;55732;52.248;-0.844;2023-08-20T07:13:34;101235.36;;;18.00;81.43
62926;BME280;55732;52.248;-0.844;2023-08-20T07:16:00;101241.35;;;18.13;80.86
62926;BME280;55732;52.248;-0.844;2023-08-20T07:18:25;101240.95;;;18.22;80.25
62926;BME280;55732;52.248;-0.844;2023-08-20T07:20:51;101240.69;;;18.27;79.62
62926;BME280;55732;52.248;-0.844;2023-08-20T07:23:19;101238.27;;;18.30;79.12
62926;BME280;55732;52.248;-0.844;2023-08-20T07:25:44;101243.89;;;18.34;78.69
62926;BME280;55732;52.248;-0.844;2023-08-20T07:28:10;101245.61;;;18.37;78.35
62926;BME280;55732;52.248;-0.844;2023-08-20T07:30:35;101252.72;;;18.45;77.81
62926;BME280;55732;52.248;-0.844;2023-08-20T07:33:02;101244.98;;;18.73;77.48
62926;BME280;55732;52.248;-0.844;2023-08-20T07:35:27;101254.21;;;18.96;76.97
62926;BME280;55732;52.248;-0.844;2023-08-20T07:37:53;101252.85;;;19.28;76.43
62926;BME280;55732;52.248;-0.844;2023-08-20T07:40:18;101247.98;;;20.12;75.18
62926;BME280;55732;52.248;-0.844;2023-08-20T07:42:44;101249.92;;;20.60;73.62
62926;BME280;55732;52.248;-0.844;2023-08-20T07:45:10;101249.99;;;20.96;72.48
62926;BME280;55732;52.248;-0.844;2023-08-20T07:47:37;101249.75;;;21.09;71.46
62926;BME280;55732;52.248;-0.844;2023-08-20T07:50:04;101255.76;;;21.06;70.89
62926;BME280;55732;52.248;-0.844;2023-08-20T07:52:33;101252.81;;;20.92;70.91
62926;BME280;55732;52.248;-0.844;2023-08-20T07:54:58;101253.70;;;20.70;70.89
62926;BME280;55732;52.248;-0.844;2023-08-20T07:57:24;101260.54;;;20.58;70.80
62926;BME280;55732;52.248;-0.844;2023-08-20T07:59:50;101260.58;;;20.52;70.90
62926;BME280;55732;52.248;-0.844;2023-08-20T08:02:16;101264.02;;;20.38;71.03
62926;BME280;55732;52.248;-0.844;2023-08-20T08:04:42;101266.92;;;20.54;70.80
62926;BME280;55732;52.248;-0.844;2023-08-20T08:07:08;101272.23;;;20.62;70.52
62926;BME280;55732;52.248;-0.844;2023-08-20T08:09:33;101272.63;;;20.44;70.77
62926;BME280;55732;52.248;-0.844;2023-08-20T08:12:00;101271.98;;;20.96;69.91
62926;BME280;55732;52.248;-0.844;2023-08-20T08:14:25;101266.41;;;23.57;64.70
62926;BME280;55732;52.248;-0.844;2023-08-20T08:16:51;101267.44;;;24.11;63.02
62926;BME280;55732;52.248;-0.844;2023-08-20T08:19:17;101262.63;;;26.37;59.08
62926;BME280;55732;52.248;-0.844;2023-08-20T08:21:44;101260.95;;;28.87;54.39
62926;BME280;55732;52.248;-0.844;2023-08-20T08:24:13;101264.65;;;29.68;52.08
62926;BME280;55732;52.248;-0.844;2023-08-20T08:26:39;101266.73;;;29.93;50.48
62926;BME280;55732;52.248;-0.844;2023-08-20T08:29:06;101266.41;;;30.93;48.27
62926;BME280;55732;52.248;-0.844;2023-08-20T08:31:32;101263.77;;;32.55;45.57
62926;BME280;55732;52.248;-0.844;2023-08-20T08:34:01;101267.56;;;33.88;43.01
62926;BME280;55732;52.248;-0.844;2023-08-20T08:36:26;101271.64;;;34.49;41.26
62926;BME280;55732;52.248;-0.844;2023-08-20T08:38:52;101271.91;;;35.99;38.77
62926;BME280;55732;52.248;-0.844;2023-08-20T08:41:23;101268.18;;;36.87;36.79
62926;BME280;55732;52.248;-0.844;2023-08-20T08:43:49;101272.50;;;37.76;35.64
62926;BME280;55732;52.248;-0.844;2023-08-20T08:46:14;101270.52;;;38.45;33.83
62926;BME280;55732;52.248;-0.844;2023-08-20T08:48:41;101270.17;;;39.36;32.39
62926;BME280;55732;52.248;-0.844;2023-08-20T08:51:07;101267.62;;;40.52;30.79
62926;BME280;55732;52.248;-0.844;2023-08-20T08:53:34;101271.77;;;41.46;29.25
62926;BME280;55732;52.248;-0.844;2023-08-20T08:56:01;101268.71;;;42.16;28.26
62926;BME280;55732;52.248;-0.844;2023-08-20T08:58:28;101272.06;;;42.73;27.68
62926;BME280;55732;52.248;-0.844;2023-08-20T09:00:54;101270.23;;;43.01;26.90
62926;BME280;55732;52.248;-0.844;2023-08-20T09:03:20;101269.56;;;43.48;25.81
62926;BME280;55732;52.248;-0.844;2023-08-20T09:05:50;101271.70;;;42.64;25.99
62926;BME280;55732;52.248;-0.844;2023-08-20T09:08:23;101273.83;;;41.81;26.60
62926;BME280;55732;52.248;-0.844;2023-08-20T09:10:52;101270.66;;;41.85;26.30
62926;BME280;55732;52.248;-0.844;2023-08-20T09:16:04;101274.66;;;43.22;24.63
62926;BME280;55732;52.248;-0.844;2023-08-20T09:18:48;101275.38;;;43.63;24.38
62926;BME280;55732;52.248;-0.844;2023-08-20T09:21:14;101267.58;;;43.84;23.75
62926;BME280;55732;52.248;-0.844;2023-08-20T09:23:40;101259.85;;;44.08;23.56
62926;BME280;55732;52.248;-0.844;2023-08-20T09:26:10;101261.67;;;44.48;23.07
62926;BME280;55732;52.248;-0.844;2023-08-20T09:28:43;101262.22;;;44.83;22.90
62926;BME280;55732;52.248;-0.844;2023-08-20T09:31:09;101260.92;;;45.08;22.24
62926;BME280;55732;52.248;-0.844;2023-08-20T09:33:35;101259.50;;;45.47;21.97
62926;BME280;55732;52.248;-0.844;2023-08-20T09:36:03;101259.11;;;45.79;21.44
62926;BME280;55732;52.248;-0.844;2023-08-20T09:38:29;101257.05;;;45.95;21.16
62926;BME280;55732;52.248;-0.844;2023-08-20T09:40:54;101256.63;;;45.50;21.04
62926;BME280;55732;52.248;-0.844;2023-08-20T09:43:24;101254.23;;;44.29;21.45
62926;BME280;55732;52.248;-0.844;2023-08-20T09:45:55;101257.48;;;42.99;22.10
62926;BME280;55732;52.248;-0.844;2023-08-20T09:48:21;101254.45;;;41.17;23.65
62926;BME280;55732;52.248;-0.844;2023-08-20T09:50:49;101252.25;;;39.56;24.83
62926;BME280;55732;52.248;-0.844;2023-08-20T09:53:26;101252.08;;;39.36;25.49
62926;BME280;55732;52.248;-0.844;2023-08-20T09:55:56;101246.52;;;38.10;26.55
62926;BME280;55732;52.248;-0.844;2023-08-20T09:58:24;101251.14;;;37.61;26.81
62926;BME280;55732;52.248;-0.844;2023-08-20T10:00:51;101247.66;;;38.40;26.48
62926;BME280;55732;52.248;-0.844;2023-08-20T10:03:18;101244.23;;;38.91;25.96
62926;BME280;55732;52.248;-0.844;2023-08-20T10:05:46;101243.91;;;39.79;25.27
62926;BME280;55732;52.248;-0.844;2023-08-20T10:08:14;101240.15;;;40.57;24.57
62926;BME280;55732;52.248;-0.844;2023-08-20T10:10:40;101242.01;;;40.65;24.20
62926;BME280;55732;52.248;-0.844;2023-08-20T10:13:05;101242.80;;;40.40;24.54
62926;BME280;55732;52.248;-0.844;2023-08-20T10:15:31;101245.55;;;40.88;24.06
62926;BME280;55732;52.248;-0.844;2023-08-20T10:18:00;101248.45;;;41.30;23.51
62926;BME280;55732;52.248;-0.844;2023-08-20T10:20:28;101252.98;;;41.44;23.11
62926;BME280;55732;52.248;-0.844;2023-08-20T10:23:00;101257.94;;;41.31;23.02
62926;BME280;55732;52.248;-0.844;2023-08-20T10:25:25;101258.89;;;39.96;24.13
62926;BME280;55732;52.248;-0.844;2023-08-20T10:27:51;101253.55;;;39.95;24.07
62926;BME280;55732;52.248;-0.844;2023-08-20T10:30:26;101247.73;;;40.06;24.14
62926;BME280;55732;52.248;-0.844;2023-08-20T10:32:54;101256.00;;;40.14;24.18
62926;BME280;55732;52.248;-0.844;2023-08-20T10:35:23;101255.66;;;40.25;24.09
62926;BME280;55732;52.248;-0.844;2023-08-20T10:38:20;101252.85;;;40.16;24.20
62926;BME280;55732;52.248;-0.844;2023-08-20T10:43:33;101253.54;;;38.23;26.18
62926;BME280;55732;52.248;-0.844;2023-08-20T10:46:05;101250.68;;;36.23;27.94
62926;BME280;55732;52.248;-0.844;2023-08-20T10:48:36;101250.05;;;34.63;29.45
62926;BME280;55732;52.248;-0.844;2023-08-20T10:51:13;101247.14;;;33.31;30.94
62926;BME280;55732;52.248;-0.844;2023-08-20T10:53:41;101242.81;;;32.29;32.27
62926;BME280;55732;52.248;-0.844;2023-08-20T10:56:08;101236.27;;;31.52;33.66
62926;BME280;55732;52.248;-0.844;2023-08-20T10:58:34;101236.70;;;30.87;34.30
62926;BME280;55732;52.248;-0.844;2023-08-20T11:01:20;101236.72;;;30.39;35.12
62926;BME280;55732;52.248;-0.844;2023-08-20T11:03:48;101231.61;;;29.84;35.94
62926;BME280;55732;52.248;-0.844;2023-08-20T11:06:15;101235.23;;;29.43;37.20
62926;BME280;55732;52.248;-0.844;2023-08-20T11:08:41;101239.32;;;29.10;37.68
62926;BME280;55732;52.248;-0.844;2023-08-20T11:11:07;101245.05;;;28.81;37.92
62926;BME280;55732;52.248;-0.844;2023-08-20T11:13:34;101241.31;;;28.53;38.31
62926;BME280;55732;52.248;-0.844;2023-08-20T11:16:01;101236.80;;;28.33;38.67
62926;BME280;55732;52.248;-0.844;2023-08-20T11:18:27;101235.06;;;28.29;39.01
62926;BME280;55732;52.248;-0.844;2023-08-20T11:20:54;101235.79;;;28.29;39.05
62926;BME280;55732;52.248;-0.844;2023-08-20T11:23:21;101235.73;;;28.25;39.55
62926;BME280;55732;52.248;-0.844;2023-08-20T11:25:47;101236.19;;;28.09;39.53
62926;BME280;55732;52.248;-0.844;2023-08-20T11:28:12;101236.13;;;28.04;39.71
62926;BME280;55732;52.248;-0.844;2023-08-20T11:30:38;101233.21;;;27.84;40.01
62926;BME280;55732;52.248;-0.844;2023-08-20T11:33:03;101232.30;;;27.76;40.28
62926;BME280;55732;52.248;-0.844;2023-08-20T11:35:31;101235.39;;;27.64;40.52
62926;BME280;55732;52.248;-0.844;2023-08-20T11:37:56;101235.28;;;27.57;40.46
62926;BME280;55732;52.248;-0.844;2023-08-20T11:40:22;101231.54;;;27.62;40.70
62926;BME280;55732;52.248;-0.844;2023-08-20T11:42:48;101229.52;;;27.68;40.69
62926;BME280;55732;52.248;-0.844;2023-08-20T11:45:13;101229.37;;;27.62;40.30
62926;BME280;55732;52.248;-0.844;2023-08-20T11:47:40;101220.80;;;27.51;41.04
62926;BME280;55732;52.248;-0.844;2023-08-20T11:50:06;101219.70;;;27.54;41.10
62926;BME280;55732;52.248;-0.844;2023-08-20T11:52:34;101217.81;;;27.56;40.68
62926;BME280;55732;52.248;-0.844;2023-08-20T11:55:01;101214.64;;;27.42;40.76
62926;BME280;55732;52.248;-0.844;2023-08-20T11:57:31;101210.52;;;27.54;40.94
62926;BME280;55732;52.248;-0.844;2023-08-20T12:00:06;101214.42;;;27.58;41.00
62926;BME280;55732;52.248;-0.844;2023-08-20T12:02:41;101216.20;;;27.59;41.17
62926;BME280;55732;52.248;-0.844;2023-08-20T12:05:09;101216.64;;;27.57;40.99
62926;BME280;55732;52.248;-0.844;2023-08-20T12:07:34;101215.29;;;27.49;40.90
62926;BME280;55732;52.248;-0.844;2023-08-20T12:10:19;101215.34;;;27.37;40.81
62926;BME280;55732;52.248;-0.844;2023-08-20T12:12:48;101220.96;;;27.27;41.34
62926;BME280;55732;52.248;-0.844;2023-08-20T12:15:13;101213.35;;;27.48;41.06
62926;BME280;55732;52.248;-0.844;2023-08-20T12:17:39;101210.48;;;27.51;40.67
62926;BME280;55732;52.248;-0.844;2023-08-20T12:20:04;101214.13;;;27.30;40.83
62926;BME280;55732;52.248;-0.844;2023-08-20T12:22:39;101211.18;;;27.10;41.56
62926;BME280;55732;52.248;-0.844;2023-08-20T12:25:05;101215.43;;;26.96;41.36
62926;BME280;55732;52.248;-0.844;2023-08-20T12:27:31;101218.34;;;26.87;41.26
62926;BME280;55732;52.248;-0.844;2023-08-20T12:29:56;101213.50;;;27.02;40.92
62926;BME280;55732;52.248;-0.844;2023-08-20T12:32:22;101219.30;;;26.83;41.14
62926;BME280;55732;52.248;-0.844;2023-08-20T12:34:47;101214.49;;;26.63;41.74
62926;BME280;55732;52.248;-0.844;2023-08-20T12:37:12;101215.41;;;26.66;42.01
62926;BME280;55732;52.248;-0.844;2023-08-20T12:39:38;101212.45;;;26.85;41.52
62926;BME280;55732;52.248;-0.844;2023-08-20T12:42:03;101208.29;;;26.85;42.03
62926;BME280;55732;52.248;-0.844;2023-08-20T12:44:29;101198.95;;;26.81;42.01
62926;BME280;55732;52.248;-0.844;2023-08-20T12:46:54;101205.90;;;26.96;41.72
62926;BME280;55732;52.248;-0.844;2023-08-20T12:49:20;101203.05;;;27.16;41.63
62926;BME280;55732;52.248;-0.844;2023-08-20T12:51:45;101199.42;;;27.25;41.13
62926;BME280;55732;52.248;-0.844;2023-08-20T12:54:10;101198.52;;;27.16;41.29